sensor_id;sensor_type;location;lat;lon;timestamp;temperature;humidity
10447;DHT22;5271;44.422;26.092;2023-04-30T00:02:02;16.60;96.30
10447;DHT22;5271;44.422;26.092;2023-04-30T00:04:30;16.60;96.10
10447;DHT22;5271;44.422;26.092;2023-04-30T00:06:57;16.60;96.00
10447;DHT22;5271;44.422;26.092;2023-04-30T00:09:23;16.60;96.10
10447;DHT22;5271;44.422;26.092;2023-04-30T00:11:50;16.50;96.10
10447;DHT22;5271;44.422;26.092;2023-04-30T00:14:17;16.50;96.20
10447;DHT22;5271;44.422;26.092;2023-04-30T00:16:44;16.50;96.10
10447;DHT22;5271;44.422;26.092;2023-04-30T00:19:11;16.50;96.20
10447;DHT22;5271;44.422;26.092;2023-04-30T00:21:39;16.40;96.20
10447;DHT22;5271;44.422;26.092;2023-04-30T00:24:06;16.40;96.20
10447;DHT22;5271;44.422;26.092;2023-04-30T00:26:33;16.40;96.20
10447;DHT22;5271;44.422;26.092;2023-04-30T00:29:00;16.30;96.30
10447;DHT22;5271;44.422;26.092;2023-04-30T00:31:27;16.30;96.20
10447;DHT22;5271;44.422;26.092;2023-04-30T00:33:54;16.30;96.20
10447;DHT22;5271;44.422;26.092;2023-04-30T00:36:21;16.30;96.10
10447;DHT22;5271;44.422;26.092;2023-04-30T00:38:49;16.30;95.90
10447;DHT22;5271;44.422;26.092;2023-04-30T00:41:16;16.30;96.00
10447;DHT22;5271;44.422;26.092;2023-04-30T00:43:44;16.30;95.50
10447;DHT22;5271;44.422;26.092;2023-04-30T00:46:11;16.30;95.70
10447;DHT22;5271;44.422;26.092;2023-04-30T00:48:39;16.20;95.60
10447;DHT22;5271;44.422;26.092;2023-04-30T00:51:06;16.20;95.50
10447;DHT22;5271;44.422;26.092;2023-04-30T00:53:34;16.20;95.70
10447;DHT22;5271;44.422;26.092;2023-04-30T00:56:04;16.20;95.70
10447;DHT22;5271;44.422;26.092;2023-04-30T00:58:31;16.10;95.80
10447;DHT22;5271;44.422;26.092;2023-04-30T01:00:58;16.10;95.80
10447;DHT22;5271;44.422;26.092;2023-04-30T01:03:24;16.10;95.90
10447;DHT22;5271;44.422;26.092;2023-04-30T01:05:51;16.10;95.70
10447;DHT22;5271;44.422;26.092;2023-04-30T01:08:19;16.00;95.60
10447;DHT22;5271;44.422;26.092;2023-04-30T01:10:52;15.90;95.60
10447;DHT22;5271;44.422;26.092;2023-04-30T01:13:25;15.90;95.80
10447;DHT22;5271;44.422;26.092;2023-04-30T01:15:58;15.90;95.70
10447;DHT22;5271;44.422;26.092;2023-04-30T01:18:28;15.90;95.60
10447;DHT22;5271;44.422;26.092;2023-04-30T01:21:03;15.80;95.60
10447;DHT22;5271;44.422;26.092;2023-04-30T01:23:53;15.80;95.70
10447;DHT22;5271;44.422;26.092;2023-04-30T01:26:33;15.80;95.80
10447;DHT22;5271;44.422;26.092;2023-04-30T01:29:07;15.70;95.80
10447;DHT22;5271;44.422;26.092;2023-04-30T01:31:35;15.70;95.90
10447;DHT22;5271;44.422;26.092;2023-04-30T01:34:02;15.70;96.00
10447;DHT22;5271;44.422;26.092;2023-04-30T01:36:38;15.70;95.70
10447;DHT22;5271;44.422;26.092;2023-04-30T01:39:19;15.70;95.50
10447;DHT22;5271;44.422;26.092;2023-04-30T01:42:00;15.70;95.70
10447;DHT22;5271;44.422;26.092;2023-04-30T01:44:52;15.60;95.60
10447;DHT22;5271;44.422;26.092;2023-04-30T01:47:27;15.60;95.70
10447;DHT22;5271;44.422;26.092;2023-04-30T01:50:04;15.60;95.80
10447;DHT22;5271;44.422;26.092;2023-04-30T01:52:40;15.50;96.00
10447;DHT22;5271;44.422;26.092;2023-04-30T01:55:10;15.50;95.80
10447;DHT22;5271;44.422;26.092;2023-04-30T01:57:41;15.50;95.90
10447;DHT22;5271;44.422;26.092;2023-04-30T02:00:11;15.50;95.90
10447;DHT22;5271;44.422;26.092;2023-04-30T02:02:39;15.50;96.10
10447;DHT22;5271;44.422;26.092;2023-04-30T02:05:06;15.40;96.10
10447;DHT22;5271;44.422;26.092;2023-04-30T02:07:38;15.40;96.30
10447;DHT22;5271;44.422;26.092;2023-04-30T02:10:06;15.40;96.30
10447;DHT22;5271;44.422;26.092;2023-04-30T02:12:33;15.40;96.20
10447;DHT22;5271;44.422;26.092;2023-04-30T02:15:00;15.30;96.30
10447;DHT22;5271;44.422;26.092;2023-04-30T02:17:29;15.30;96.40
10447;DHT22;5271;44.422;26.092;2023-04-30T02:19:56;15.30;96.30
10447;DHT22;5271;44.422;26.092;2023-04-30T02:22:24;15.30;96.30
10447;DHT22;5271;44.422;26.092;2023-04-30T02:24:50;15.30;96.50
10447;DHT22;5271;44.422;26.092;2023-04-30T02:27:20;15.20;96.50
10447;DHT22;5271;44.422;26.092;2023-04-30T02:29:48;15.20;96.40
10447;DHT22;5271;44.422;26.092;2023-04-30T02:32:15;15.20;96.30
10447;DHT22;5271;44.422;26.092;2023-04-30T02:34:43;15.10;96.40
10447;DHT22;5271;44.422;26.092;2023-04-30T02:37:10;15.10;96.40
10447;DHT22;5271;44.422;26.092;2023-04-30T02:39:37;15.10;96.50
10447;DHT22;5271;44.422;26.092;2023-04-30T02:42:04;15.10;96.80
10447;DHT22;5271;44.422;26.092;2023-04-30T02:44:31;15.10;96.70
10447;DHT22;5271;44.422;26.092;2023-04-30T02:46:58;15.10;96.70
10447;DHT22;5271;44.422;26.092;2023-04-30T02:49:25;15.10;96.60
10447;DHT22;5271;44.422;26.092;2023-04-30T02:51:53;15.00;96.60
10447;DHT22;5271;44.422;26.092;2023-04-30T02:54:20;15.00;96.70
10447;DHT22;5271;44.422;26.092;2023-04-30T02:56:47;15.00;96.80
10447;DHT22;5271;44.422;26.092;2023-04-30T02:59:14;15.00;96.70
10447;DHT22;5271;44.422;26.092;2023-04-30T03:01:41;15.00;96.70
10447;DHT22;5271;44.422;26.092;2023-04-30T03:04:08;15.10;96.50
10447;DHT22;5271;44.422;26.092;2023-04-30T03:06:35;15.00;96.40
10447;DHT22;5271;44.422;26.092;2023-04-30T03:09:03;15.00;96.40
10447;DHT22;5271;44.422;26.092;2023-04-30T03:11:30;15.00;96.50
10447;DHT22;5271;44.422;26.092;2023-04-30T03:13:57;15.00;96.50
10447;DHT22;5271;44.422;26.092;2023-04-30T03:16:24;15.00;96.70
10447;DHT22;5271;44.422;26.092;2023-04-30T03:18:51;14.90;96.40
10447;DHT22;5271;44.422;26.092;2023-04-30T03:21:17;15.00;96.50
10447;DHT22;5271;44.422;26.092;2023-04-30T03:23:44;15.00;96.50
10447;DHT22;5271;44.422;26.092;2023-04-30T03:26:13;14.90;96.50
10447;DHT22;5271;44.422;26.092;2023-04-30T03:28:39;14.90;96.50
10447;DHT22;5271;44.422;26.092;2023-04-30T03:31:06;15.00;96.40
10447;DHT22;5271;44.422;26.092;2023-04-30T03:33:33;14.90;96.50
10447;DHT22;5271;44.422;26.092;2023-04-30T03:36:00;15.00;96.40
10447;DHT22;5271;44.422;26.092;2023-04-30T03:38:27;15.00;96.40
10447;DHT22;5271;44.422;26.092;2023-04-30T03:40:53;14.90;96.50
10447;DHT22;5271;44.422;26.092;2023-04-30T03:43:22;14.90;96.50
10447;DHT22;5271;44.422;26.092;2023-04-30T03:45:49;14.90;96.50
10447;DHT22;5271;44.422;26.092;2023-04-30T03:48:16;14.90;96.60
10447;DHT22;5271;44.422;26.092;2023-04-30T03:50:43;14.90;96.50
10447;DHT22;5271;44.422;26.092;2023-04-30T03:53:10;14.90;96.40
10447;DHT22;5271;44.422;26.092;2023-04-30T03:55:37;15.00;96.40
10447;DHT22;5271;44.422;26.092;2023-04-30T03:58:04;14.90;96.40
10447;DHT22;5271;44.422;26.092;2023-04-30T04:00:33;15.00;96.20
10447;DHT22;5271;44.422;26.092;2023-04-30T04:03:00;14.90;96.10
10447;DHT22;5271;44.422;26.092;2023-04-30T04:05:26;14.90;96.10
10447;DHT22;5271;44.422;26.092;2023-04-30T04:07:53;14.90;96.30
10447;DHT22;5271;44.422;26.092;2023-04-30T04:10:20;14.90;96.30
10447;DHT22;5271;44.422;26.092;2023-04-30T04:12:47;14.90;96.30
10447;DHT22;5271;44.422;26.092;2023-04-30T04:15:14;14.90;96.20
10447;DHT22;5271;44.422;26.092;2023-04-30T04:17:42;14.90;96.10
10447;DHT22;5271;44.422;26.092;2023-04-30T04:20:10;14.90;96.20
10447;DHT22;5271;44.422;26.092;2023-04-30T04:22:37;14.90;96.20
10447;DHT22;5271;44.422;26.092;2023-04-30T04:25:05;14.80;96.20
10447;DHT22;5271;44.422;26.092;2023-04-30T04:27:32;14.80;96.20
10447;DHT22;5271;44.422;26.092;2023-04-30T04:29:59;14.80;96.10
10447;DHT22;5271;44.422;26.092;2023-04-30T04:32:26;14.80;96.50
10447;DHT22;5271;44.422;26.092;2023-04-30T04:34:54;14.80;96.40
10447;DHT22;5271;44.422;26.092;2023-04-30T04:37:21;14.80;96.40
10447;DHT22;5271;44.422;26.092;2023-04-30T04:39:48;14.80;96.50
10447;DHT22;5271;44.422;26.092;2023-04-30T04:42:16;14.80;96.40
10447;DHT22;5271;44.422;26.092;2023-04-30T04:44:42;14.80;96.40
10447;DHT22;5271;44.422;26.092;2023-04-30T04:47:09;14.80;96.20
10447;DHT22;5271;44.422;26.092;2023-04-30T04:49:37;14.80;96.30
10447;DHT22;5271;44.422;26.092;2023-04-30T04:52:05;14.80;96.50
10447;DHT22;5271;44.422;26.092;2023-04-30T04:54:32;14.80;96.50
10447;DHT22;5271;44.422;26.092;2023-04-30T04:56:59;14.90;96.40
10447;DHT22;5271;44.422;26.092;2023-04-30T04:59:27;14.90;96.10
10447;DHT22;5271;44.422;26.092;2023-04-30T05:01:54;14.90;96.20
10447;DHT22;5271;44.422;26.092;2023-04-30T05:04:21;14.90;96.30
10447;DHT22;5271;44.422;26.092;2023-04-30T05:06:48;14.80;96.40
10447;DHT22;5271;44.422;26.092;2023-04-30T05:09:16;14.80;96.20
10447;DHT22;5271;44.422;26.092;2023-04-30T05:11:43;14.90;96.30
10447;DHT22;5271;44.422;26.092;2023-04-30T05:14:10;14.80;96.40
10447;DHT22;5271;44.422;26.092;2023-04-30T05:16:37;14.80;96.20
10447;DHT22;5271;44.422;26.092;2023-04-30T05:19:04;14.80;96.30
10447;DHT22;5271;44.422;26.092;2023-04-30T05:21:31;14.90;96.50
10447;DHT22;5271;44.422;26.092;2023-04-30T05:23:58;14.90;96.30
10447;DHT22;5271;44.422;26.092;2023-04-30T05:26:26;15.00;96.30
10447;DHT22;5271;44.422;26.092;2023-04-30T05:28:53;15.00;96.20
10447;DHT22;5271;44.422;26.092;2023-04-30T05:31:20;15.00;96.10
10447;DHT22;5271;44.422;26.092;2023-04-30T05:33:47;15.00;96.10
10447;DHT22;5271;44.422;26.092;2023-04-30T05:36:14;15.00;96.20
10447;DHT22;5271;44.422;26.092;2023-04-30T05:38:41;15.00;96.30
10447;DHT22;5271;44.422;26.092;2023-04-30T05:41:10;15.10;96.40
10447;DHT22;5271;44.422;26.092;2023-04-30T05:43:38;15.20;96.00
10447;DHT22;5271;44.422;26.092;2023-04-30T05:46:05;15.20;96.10
10447;DHT22;5271;44.422;26.092;2023-04-30T05:48:32;15.30;95.90
10447;DHT22;5271;44.422;26.092;2023-04-30T05:50:59;15.30;95.80
10447;DHT22;5271;44.422;26.092;2023-04-30T05:53:26;15.20;95.90
10447;DHT22;5271;44.422;26.092;2023-04-30T05:55:52;15.20;95.70
10447;DHT22;5271;44.422;26.092;2023-04-30T05:58:19;15.20;95.80
10447;DHT22;5271;44.422;26.092;2023-04-30T06:00:49;15.20;95.90
10447;DHT22;5271;44.422;26.092;2023-04-30T06:03:16;15.20;96.10
10447;DHT22;5271;44.422;26.092;2023-04-30T06:05:43;15.20;96.00
10447;DHT22;5271;44.422;26.092;2023-04-30T06:08:10;15.20;96.00
10447;DHT22;5271;44.422;26.092;2023-04-30T06:10:37;15.20;96.00
10447;DHT22;5271;44.422;26.092;2023-04-30T06:13:04;15.20;96.20
10447;DHT22;5271;44.422;26.092;2023-04-30T06:15:32;15.20;95.90
10447;DHT22;5271;44.422;26.092;2023-04-30T06:18:00;15.30;96.10
10447;DHT22;5271;44.422;26.092;2023-04-30T06:20:27;15.30;96.00
10447;DHT22;5271;44.422;26.092;2023-04-30T06:22:54;15.40;96.20
10447;DHT22;5271;44.422;26.092;2023-04-30T06:25:21;15.40;95.90
10447;DHT22;5271;44.422;26.092;2023-04-30T06:27:48;15.50;95.70
10447;DHT22;5271;44.422;26.092;2023-04-30T06:30:16;15.50;95.60
10447;DHT22;5271;44.422;26.092;2023-04-30T06:32:43;15.50;95.60
10447;DHT22;5271;44.422;26.092;2023-04-30T06:35:11;15.50;95.50
10447;DHT22;5271;44.422;26.092;2023-04-30T06:37:38;15.50;95.50
10447;DHT22;5271;44.422;26.092;2023-04-30T06:40:06;15.50;95.60
10447;DHT22;5271;44.422;26.092;2023-04-30T06:42:33;15.60;95.40
10447;DHT22;5271;44.422;26.092;2023-04-30T06:45:00;15.60;95.30
10447;DHT22;5271;44.422;26.092;2023-04-30T06:47:28;15.60;95.30
10447;DHT22;5271;44.422;26.092;2023-04-30T06:49:58;15.60;95.50
10447;DHT22;5271;44.422;26.092;2023-04-30T06:52:27;15.60;95.50
10447;DHT22;5271;44.422;26.092;2023-04-30T06:54:54;15.60;95.50
10447;DHT22;5271;44.422;26.092;2023-04-30T06:57:21;15.60;95.60
10447;DHT22;5271;44.422;26.092;2023-04-30T06:59:47;15.60;95.70
10447;DHT22;5271;44.422;26.092;2023-04-30T07:02:14;15.60;95.60
10447;DHT22;5271;44.422;26.092;2023-04-30T07:04:41;15.70;95.60
10447;DHT22;5271;44.422;26.092;2023-04-30T07:07:08;15.70;95.50
10447;DHT22;5271;44.422;26.092;2023-04-30T07:09:37;15.80;95.20
10447;DHT22;5271;44.422;26.092;2023-04-30T07:12:04;15.80;95.10
10447;DHT22;5271;44.422;26.092;2023-04-30T07:14:31;15.80;95.30
10447;DHT22;5271;44.422;26.092;2023-04-30T07:16:57;15.80;95.20
10447;DHT22;5271;44.422;26.092;2023-04-30T07:19:25;15.80;95.10
10447;DHT22;5271;44.422;26.092;2023-04-30T07:21:52;15.80;95.20
10447;DHT22;5271;44.422;26.092;2023-04-30T07:24:18;15.80;95.10
10447;DHT22;5271;44.422;26.092;2023-04-30T07:26:47;15.90;95.10
10447;DHT22;5271;44.422;26.092;2023-04-30T07:29:13;16.00;95.40
10447;DHT22;5271;44.422;26.092;2023-04-30T07:31:40;16.10;95.20
10447;DHT22;5271;44.422;26.092;2023-04-30T07:34:07;16.30;95.40
10447;DHT22;5271;44.422;26.092;2023-04-30T07:36:34;16.70;94.90
10447;DHT22;5271;44.422;26.092;2023-04-30T07:39:03;17.10;94.40
10447;DHT22;5271;44.422;26.092;2023-04-30T07:41:30;17.40;93.80
10447;DHT22;5271;44.422;26.092;2023-04-30T07:43:58;17.70;93.20
10447;DHT22;5271;44.422;26.092;2023-04-30T07:46:25;18.00;93.10
10447;DHT22;5271;44.422;26.092;2023-04-30T07:48:52;18.40;92.60
10447;DHT22;5271;44.422;26.092;2023-04-30T07:51:19;18.70;92.20
10447;DHT22;5271;44.422;26.092;2023-04-30T07:53:46;18.90;92.00
10447;DHT22;5271;44.422;26.092;2023-04-30T07:56:13;19.00;91.60
10447;DHT22;5271;44.422;26.092;2023-04-30T07:58:39;19.00;91.40
10447;DHT22;5271;44.422;26.092;2023-04-30T08:01:08;18.90;91.40
10447;DHT22;5271;44.422;26.092;2023-04-30T08:03:34;18.90;91.40
10447;DHT22;5271;44.422;26.092;2023-04-30T08:06:01;19.00;91.80
10447;DHT22;5271;44.422;26.092;2023-04-30T08:08:28;19.10;91.30
10447;DHT22;5271;44.422;26.092;2023-04-30T08:10:55;19.10;90.90
10447;DHT22;5271;44.422;26.092;2023-04-30T08:13:22;19.00;91.30
10447;DHT22;5271;44.422;26.092;2023-04-30T08:15:49;19.00;91.00
10447;DHT22;5271;44.422;26.092;2023-04-30T08:18:17;18.90;91.10
10447;DHT22;5271;44.422;26.092;2023-04-30T08:20:44;18.80;91.20
10447;DHT22;5271;44.422;26.092;2023-04-30T08:23:11;18.70;91.50
10447;DHT22;5271;44.422;26.092;2023-04-30T08:25:37;18.80;91.40
10447;DHT22;5271;44.422;26.092;2023-04-30T08:28:05;18.80;91.20
10447;DHT22;5271;44.422;26.092;2023-04-30T08:30:32;18.80;91.00
10447;DHT22;5271;44.422;26.092;2023-04-30T08:32:59;18.80;91.60
10447;DHT22;5271;44.422;26.092;2023-04-30T08:35:27;18.80;91.20
10447;DHT22;5271;44.422;26.092;2023-04-30T08:37:55;18.90;91.20
10447;DHT22;5271;44.422;26.092;2023-04-30T08:40:22;18.90;90.90
10447;DHT22;5271;44.422;26.092;2023-04-30T08:42:53;18.80;90.90
10447;DHT22;5271;44.422;26.092;2023-04-30T08:45:23;18.70;91.00
10447;DHT22;5271;44.422;26.092;2023-04-30T08:47:50;18.60;91.40
10447;DHT22;5271;44.422;26.092;2023-04-30T08:50:17;18.70;91.40
10447;DHT22;5271;44.422;26.092;2023-04-30T08:52:46;18.70;91.50
10447;DHT22;5271;44.422;26.092;2023-04-30T08:55:13;18.80;91.20
10447;DHT22;5271;44.422;26.092;2023-04-30T08:57:40;18.90;91.20
10447;DHT22;5271;44.422;26.092;2023-04-30T09:00:07;19.00;91.20
10447;DHT22;5271;44.422;26.092;2023-04-30T09:02:38;19.10;91.10
10447;DHT22;5271;44.422;26.092;2023-04-30T09:05:08;19.10;91.30
10447;DHT22;5271;44.422;26.092;2023-04-30T09:07:37;19.00;91.20
10447;DHT22;5271;44.422;26.092;2023-04-30T09:10:13;18.90;91.10
10447;DHT22;5271;44.422;26.092;2023-04-30T09:12:41;18.80;91.20
10447;DHT22;5271;44.422;26.092;2023-04-30T09:15:11;18.70;91.10
10447;DHT22;5271;44.422;26.092;2023-04-30T09:17:38;18.60;91.40
10447;DHT22;5271;44.422;26.092;2023-04-30T09:20:06;18.40;91.60
10447;DHT22;5271;44.422;26.092;2023-04-30T09:22:35;18.30;91.80
10447;DHT22;5271;44.422;26.092;2023-04-30T09:25:02;18.30;92.00
10447;DHT22;5271;44.422;26.092;2023-04-30T09:27:30;18.30;92.10
10447;DHT22;5271;44.422;26.092;2023-04-30T09:29:57;18.30;92.30
10447;DHT22;5271;44.422;26.092;2023-04-30T09:32:24;18.50;92.20
10447;DHT22;5271;44.422;26.092;2023-04-30T09:34:51;18.60;91.90
10447;DHT22;5271;44.422;26.092;2023-04-30T09:37:18;18.80;92.10
10447;DHT22;5271;44.422;26.092;2023-04-30T09:39:53;19.00;91.60
10447;DHT22;5271;44.422;26.092;2023-04-30T09:42:20;19.00;91.30
10447;DHT22;5271;44.422;26.092;2023-04-30T09:44:49;19.00;91.30
10447;DHT22;5271;44.422;26.092;2023-04-30T09:47:19;18.90;91.50
10447;DHT22;5271;44.422;26.092;2023-04-30T09:49:47;18.80;91.60
10447;DHT22;5271;44.422;26.092;2023-04-30T09:52:16;18.70;91.80
10447;DHT22;5271;44.422;26.092;2023-04-30T09:54:44;18.70;91.80
10447;DHT22;5271;44.422;26.092;2023-04-30T09:57:13;18.60;91.90
10447;DHT22;5271;44.422;26.092;2023-04-30T09:59:43;18.60;92.00
10447;DHT22;5271;44.422;26.092;2023-04-30T10:02:13;18.50;92.10
10447;DHT22;5271;44.422;26.092;2023-04-30T10:04:42;18.40;92.30
10447;DHT22;5271;44.422;26.092;2023-04-30T10:07:12;18.30;92.30
10447;DHT22;5271;44.422;26.092;2023-04-30T10:09:46;18.20;92.50
10447;DHT22;5271;44.422;26.092;2023-04-30T10:12:14;18.20;92.60
10447;DHT22;5271;44.422;26.092;2023-04-30T10:14:47;18.10;92.70
10447;DHT22;5271;44.422;26.092;2023-04-30T10:17:19;18.10;92.70
10447;DHT22;5271;44.422;26.092;2023-04-30T10:19:51;18.10;92.80
10447;DHT22;5271;44.422;26.092;2023-04-30T10:22:20;18.10;92.90
10447;DHT22;5271;44.422;26.092;2023-04-30T10:24:47;18.10;93.00
10447;DHT22;5271;44.422;26.092;2023-04-30T10:27:14;18.20;93.00
10447;DHT22;5271;44.422;26.092;2023-04-30T10:29:42;18.20;93.10
10447;DHT22;5271;44.422;26.092;2023-04-30T10:32:11;18.20;93.00
10447;DHT22;5271;44.422;26.092;2023-04-30T10:34:45;18.20;93.00
10447;DHT22;5271;44.422;26.092;2023-04-30T10:37:19;18.20;93.10
10447;DHT22;5271;44.422;26.092;2023-04-30T10:39:47;18.30;93.10
10447;DHT22;5271;44.422;26.092;2023-04-30T10:42:16;18.30;93.20
10447;DHT22;5271;44.422;26.092;2023-04-30T10:44:43;18.30;93.30
10447;DHT22;5271;44.422;26.092;2023-04-30T10:47:29;18.30;93.20
10447;DHT22;5271;44.422;26.092;2023-04-30T10:50:03;18.30;93.10
10447;DHT22;5271;44.422;26.092;2023-04-30T10:52:30;18.30;93.10
10447;DHT22;5271;44.422;26.092;2023-04-30T10:54:57;18.40;92.90
10447;DHT22;5271;44.422;26.092;2023-04-30T10:57:28;18.40;92.80
10447;DHT22;5271;44.422;26.092;2023-04-30T11:00:19;18.50;92.90
10447;DHT22;5271;44.422;26.092;2023-04-30T11:02:55;18.60;92.60
10447;DHT22;5271;44.422;26.092;2023-04-30T11:05:35;18.70;92.50
10447;DHT22;5271;44.422;26.092;2023-04-30T11:08:02;18.90;92.50
10447;DHT22;5271;44.422;26.092;2023-04-30T11:10:32;19.00;92.40
10447;DHT22;5271;44.422;26.092;2023-04-30T11:13:03;19.10;92.50
10447;DHT22;5271;44.422;26.092;2023-04-30T11:15:33;19.00;92.30
10447;DHT22;5271;44.422;26.092;2023-04-30T11:18:01;19.10;92.00
10447;DHT22;5271;44.422;26.092;2023-04-30T11:20:28;19.20;91.90
10447;DHT22;5271;44.422;26.092;2023-04-30T11:23:09;19.30;91.90
10447;DHT22;5271;44.422;26.092;2023-04-30T11:25:41;19.30;92.00
10447;DHT22;5271;44.422;26.092;2023-04-30T11:28:13;19.60;91.90
10447;DHT22;5271;44.422;26.092;2023-04-30T11:30:41;19.70;91.60
10447;DHT22;5271;44.422;26.092;2023-04-30T11:33:16;19.80;91.60
10447;DHT22;5271;44.422;26.092;2023-04-30T11:35:42;19.80;91.70
10447;DHT22;5271;44.422;26.092;2023-04-30T11:38:12;19.90;91.60
10447;DHT22;5271;44.422;26.092;2023-04-30T11:40:39;20.00;91.10
10447;DHT22;5271;44.422;26.092;2023-04-30T11:43:07;20.00;91.40
10447;DHT22;5271;44.422;26.092;2023-04-30T11:45:34;20.10;91.10
10447;DHT22;5271;44.422;26.092;2023-04-30T11:48:01;20.20;91.00
10447;DHT22;5271;44.422;26.092;2023-04-30T11:50:32;20.20;91.30
10447;DHT22;5271;44.422;26.092;2023-04-30T11:53:00;20.20;90.70
10447;DHT22;5271;44.422;26.092;2023-04-30T11:55:29;20.10;90.70
10447;DHT22;5271;44.422;26.092;2023-04-30T11:57:56;20.10;90.70
10447;DHT22;5271;44.422;26.092;2023-04-30T12:00:25;20.10;90.80
10447;DHT22;5271;44.422;26.092;2023-04-30T12:02:53;20.10;90.80
10447;DHT22;5271;44.422;26.092;2023-04-30T12:05:21;20.00;90.90
10447;DHT22;5271;44.422;26.092;2023-04-30T12:07:50;19.90;91.00
10447;DHT22;5271;44.422;26.092;2023-04-30T12:10:18;19.90;91.00
10447;DHT22;5271;44.422;26.092;2023-04-30T12:12:47;19.90;91.10
10447;DHT22;5271;44.422;26.092;2023-04-30T12:15:15;19.90;91.10
10447;DHT22;5271;44.422;26.092;2023-04-30T12:17:43;20.00;90.60
10447;DHT22;5271;44.422;26.092;2023-04-30T12:20:11;19.90;90.70
10447;DHT22;5271;44.422;26.092;2023-04-30T12:22:39;19.90;90.90
10447;DHT22;5271;44.422;26.092;2023-04-30T12:25:08;19.90;91.10
10447;DHT22;5271;44.422;26.092;2023-04-30T12:27:38;19.90;91.10
10447;DHT22;5271;44.422;26.092;2023-04-30T12:30:08;19.90;91.20
10447;DHT22;5271;44.422;26.092;2023-04-30T12:32:39;19.90;91.20
10447;DHT22;5271;44.422;26.092;2023-04-30T12:35:08;20.00;91.10
10447;DHT22;5271;44.422;26.092;2023-04-30T12:37:35;20.00;91.10
10447;DHT22;5271;44.422;26.092;2023-04-30T12:40:02;20.10;91.00
10447;DHT22;5271;44.422;26.092;2023-04-30T12:42:32;20.10;90.90
10447;DHT22;5271;44.422;26.092;2023-04-30T12:45:00;20.10;90.90
10447;DHT22;5271;44.422;26.092;2023-04-30T12:47:28;20.20;90.90
10447;DHT22;5271;44.422;26.092;2023-04-30T12:49:55;20.20;90.80
10447;DHT22;5271;44.422;26.092;2023-04-30T12:52:24;20.30;90.70
10447;DHT22;5271;44.422;26.092;2023-04-30T12:54:51;20.30;90.90
10447;DHT22;5271;44.422;26.092;2023-04-30T12:57:20;20.30;90.70
10447;DHT22;5271;44.422;26.092;2023-04-30T12:59:57;20.30;90.80
10447;DHT22;5271;44.422;26.092;2023-04-30T13:02:26;20.40;90.50
10447;DHT22;5271;44.422;26.092;2023-04-30T13:04:54;20.40;90.70
10447;DHT22;5271;44.422;26.092;2023-04-30T13:07:21;20.30;90.60
10447;DHT22;5271;44.422;26.092;2023-04-30T13:09:48;20.30;90.80
10447;DHT22;5271;44.422;26.092;2023-04-30T13:12:15;20.30;90.90
10447;DHT22;5271;44.422;26.092;2023-04-30T13:14:42;20.30;90.70
10447;DHT22;5271;44.422;26.092;2023-04-30T13:17:09;20.30;90.70
10447;DHT22;5271;44.422;26.092;2023-04-30T13:19:38;20.30;90.80
10447;DHT22;5271;44.422;26.092;2023-04-30T13:22:06;20.30;90.80
10447;DHT22;5271;44.422;26.092;2023-04-30T13:24:33;20.40;90.50
10447;DHT22;5271;44.422;26.092;2023-04-30T13:27:00;20.30;90.70
10447;DHT22;5271;44.422;26.092;2023-04-30T13:29:28;20.30;90.70
10447;DHT22;5271;44.422;26.092;2023-04-30T13:31:56;20.30;90.90
10447;DHT22;5271;44.422;26.092;2023-04-30T13:34:23;20.30;91.00
10447;DHT22;5271;44.422;26.092;2023-04-30T13:36:49;20.40;90.80
10447;DHT22;5271;44.422;26.092;2023-04-30T13:39:19;20.40;91.00
10447;DHT22;5271;44.422;26.092;2023-04-30T13:41:46;20.50;90.60
10447;DHT22;5271;44.422;26.092;2023-04-30T13:44:13;20.50;90.50
10447;DHT22;5271;44.422;26.092;2023-04-30T13:46:41;20.50;90.40
10447;DHT22;5271;44.422;26.092;2023-04-30T13:49:08;20.60;90.10
10447;DHT22;5271;44.422;26.092;2023-04-30T13:51:35;20.50;90.20
10447;DHT22;5271;44.422;26.092;2023-04-30T13:54:02;20.60;90.40
10447;DHT22;5271;44.422;26.092;2023-04-30T13:56:30;20.60;90.30
10447;DHT22;5271;44.422;26.092;2023-04-30T13:58:57;20.60;90.20
10447;DHT22;5271;44.422;26.092;2023-04-30T14:01:24;20.60;90.30
10447;DHT22;5271;44.422;26.092;2023-04-30T14:03:51;20.70;90.40
10447;DHT22;5271;44.422;26.092;2023-04-30T14:06:18;20.70;90.30
10447;DHT22;5271;44.422;26.092;2023-04-30T14:08:45;20.80;90.30
10447;DHT22;5271;44.422;26.092;2023-04-30T14:11:11;20.80;89.80
10447;DHT22;5271;44.422;26.092;2023-04-30T14:13:40;20.80;90.10
10447;DHT22;5271;44.422;26.092;2023-04-30T14:16:07;20.90;90.10
10447;DHT22;5271;44.422;26.092;2023-04-30T14:18:34;20.90;90.10
10447;DHT22;5271;44.422;26.092;2023-04-30T14:21:01;20.80;90.20
10447;DHT22;5271;44.422;26.092;2023-04-30T14:23:28;20.80;90.10
10447;DHT22;5271;44.422;26.092;2023-04-30T14:25:55;20.80;90.20
10447;DHT22;5271;44.422;26.092;2023-04-30T14:28:22;20.80;90.40
10447;DHT22;5271;44.422;26.092;2023-04-30T14:30:51;20.80;90.30
10447;DHT22;5271;44.422;26.092;2023-04-30T14:33:17;20.80;90.20
10447;DHT22;5271;44.422;26.092;2023-04-30T14:35:44;20.90;90.30
10447;DHT22;5271;44.422;26.092;2023-04-30T14:38:12;20.90;90.20
10447;DHT22;5271;44.422;26.092;2023-04-30T14:40:38;20.90;90.20
10447;DHT22;5271;44.422;26.092;2023-04-30T14:43:05;21.00;90.30
10447;DHT22;5271;44.422;26.092;2023-04-30T14:45:32;20.90;90.20
10447;DHT22;5271;44.422;26.092;2023-04-30T14:48:00;20.90;90.00
10447;DHT22;5271;44.422;26.092;2023-04-30T14:50:28;20.90;90.10
10447;DHT22;5271;44.422;26.092;2023-04-30T14:52:56;20.90;90.00
10447;DHT22;5271;44.422;26.092;2023-04-30T14:55:22;20.90;90.10
10447;DHT22;5271;44.422;26.092;2023-04-30T14:57:49;20.90;90.00
10447;DHT22;5271;44.422;26.092;2023-04-30T15:00:16;20.90;90.00
10447;DHT22;5271;44.422;26.092;2023-04-30T15:02:43;20.90;90.10
10447;DHT22;5271;44.422;26.092;2023-04-30T15:05:11;20.90;90.10
10447;DHT22;5271;44.422;26.092;2023-04-30T15:07:38;20.90;90.30
10447;DHT22;5271;44.422;26.092;2023-04-30T15:10:06;20.90;90.30
10447;DHT22;5271;44.422;26.092;2023-04-30T15:12:34;20.90;90.30
10447;DHT22;5271;44.422;26.092;2023-04-30T15:15:00;20.90;90.60
10447;DHT22;5271;44.422;26.092;2023-04-30T15:17:29;20.90;90.50
10447;DHT22;5271;44.422;26.092;2023-04-30T15:19:56;20.90;90.50
10447;DHT22;5271;44.422;26.092;2023-04-30T15:22:26;20.90;90.50
10447;DHT22;5271;44.422;26.092;2023-04-30T15:24:53;20.90;90.50
10447;DHT22;5271;44.422;26.092;2023-04-30T15:27:21;20.80;90.50
10447;DHT22;5271;44.422;26.092;2023-04-30T15:29:48;20.90;90.50
10447;DHT22;5271;44.422;26.092;2023-04-30T15:32:15;20.80;90.60
10447;DHT22;5271;44.422;26.092;2023-04-30T15:34:42;20.80;90.70
10447;DHT22;5271;44.422;26.092;2023-04-30T15:37:09;20.80;90.70